sensor_id;sensor_type;location;lat;lon;timestamp;P1;durP1;ratioP1;P2;durP2;ratioP2
36797;SDS011;22748;8.426;99.512;2022-09-03T00:01:45;13.02;;;7.00;;
36797;SDS011;22748;8.426;99.512;2022-09-03T00:04:23;13.60;;;7.38;;
36797;SDS011;22748;8.426;99.512;2022-09-03T00:07:00;13.05;;;6.45;;
36797;SDS011;22748;8.426;99.512;2022-09-03T00:09:35;8.38;;;6.05;;
36797;SDS011;22748;8.426;99.512;2022-09-03T00:12:15;9.38;;;5.65;;
36797;SDS011;22748;8.426;99.512;2022-09-03T00:14:56;12.45;;;6.03;;
36797;SDS011;22748;8.426;99.512;2022-09-03T00:17:35;9.73;;;5.40;;
36797;SDS011;22748;8.426;99.512;2022-09-03T00:20:10;12.95;;;6.60;;
36797;SDS011;22748;8.426;99.512;2022-09-03T00:22:45;9.32;;;5.72;;
36797;SDS011;22748;8.426;99.512;2022-09-03T00:25:19;8.40;;;5.47;;
36797;SDS011;22748;8.426;99.512;2022-09-03T00:27:58;9.85;;;5.68;;
36797;SDS011;22748;8.426;99.512;2022-09-03T00:30:37;8.98;;;5.50;;
36797;SDS011;22748;8.426;99.512;2022-09-03T00:33:11;8.85;;;4.95;;
36797;SDS011;22748;8.426;99.512;2022-09-03T00:35:47;11.80;;;5.82;;
36797;SDS011;22748;8.426;99.512;2022-09-03T00:38:25;7.70;;;4.80;;
36797;SDS011;22748;8.426;99.512;2022-09-03T00:41:03;8.35;;;5.15;;
36797;SDS011;22748;8.426;99.512;2022-09-03T00:43:50;11.48;;;5.80;;
36797;SDS011;22748;8.426;99.512;2022-09-03T00:46:31;6.90;;;4.70;;
36797;SDS011;22748;8.426;99.512;2022-09-03T00:49:23;5.03;;;4.40;;
36797;SDS011;22748;8.426;99.512;2022-09-03T00:52:05;27.15;;;6.10;;
36797;SDS011;22748;8.426;99.512;2022-09-03T00:54:45;41.28;;;6.70;;
36797;SDS011;22748;8.426;99.512;2022-09-03T00:57:32;44.88;;;5.30;;
36797;SDS011;22748;8.426;99.512;2022-09-03T01:00:19;77.07;;;7.05;;
36797;SDS011;22748;8.426;99.512;2022-09-03T01:03:04;11.27;;;5.05;;
36797;SDS011;22748;8.426;99.512;2022-09-03T01:05:41;5.68;;;2.90;;
36797;SDS011;22748;8.426;99.512;2022-09-03T01:08:35;12.77;;;3.17;;
36797;SDS011;22748;8.426;99.512;2022-09-03T01:11:21;9.20;;;2.47;;
36797;SDS011;22748;8.426;99.512;2022-09-03T01:14:01;5.90;;;3.00;;
36797;SDS011;22748;8.426;99.512;2022-09-03T01:16:48;5.50;;;3.00;;
36797;SDS011;22748;8.426;99.512;2022-09-03T01:19:32;10.20;;;4.82;;
36797;SDS011;22748;8.426;99.512;2022-09-03T01:22:30;20.80;;;15.63;;
36797;SDS011;22748;8.426;99.512;2022-09-03T01:25:27;7.53;;;4.45;;
36797;SDS011;22748;8.426;99.512;2022-09-03T01:28:21;9.07;;;4.18;;
36797;SDS011;22748;8.426;99.512;2022-09-03T01:31:07;4.30;;;3.70;;
36797;SDS011;22748;8.426;99.512;2022-09-03T01:33:51;9.48;;;3.67;;
36797;SDS011;22748;8.426;99.512;2022-09-03T01:36:33;14.07;;;4.45;;
36797;SDS011;22748;8.426;99.512;2022-09-03T01:39:11;6.13;;;3.28;;
36797;SDS011;22748;8.426;99.512;2022-09-03T01:41:58;14.40;;;5.10;;
36797;SDS011;22748;8.426;99.512;2022-09-03T01:44:56;8.60;;;3.40;;
36797;SDS011;22748;8.426;99.512;2022-09-03T01:47:48;8.20;;;4.10;;
36797;SDS011;22748;8.426;99.512;2022-09-03T01:50:41;4.60;;;3.20;;
36797;SDS011;22748;8.426;99.512;2022-09-03T01:53:22;13.68;;;4.43;;
36797;SDS011;22748;8.426;99.512;2022-09-03T01:56:10;8.52;;;4.05;;
36797;SDS011;22748;8.426;99.512;2022-09-03T01:58:58;8.35;;;3.35;;
36797;SDS011;22748;8.426;99.512;2022-09-03T02:01:38;16.70;;;4.45;;
36797;SDS011;22748;8.426;99.512;2022-09-03T02:04:17;24.10;;;5.53;;
36797;SDS011;22748;8.426;99.512;2022-09-03T02:06:48;14.18;;;4.05;;
36797;SDS011;22748;8.426;99.512;2022-09-03T02:09:19;10.75;;;3.13;;
36797;SDS011;22748;8.426;99.512;2022-09-03T02:11:50;6.63;;;3.20;;
36797;SDS011;22748;8.426;99.512;2022-09-03T02:14:25;6.32;;;2.90;;
36797;SDS011;22748;8.426;99.512;2022-09-03T02:16:58;6.85;;;2.58;;
36797;SDS011;22748;8.426;99.512;2022-09-03T02:19:32;8.65;;;2.85;;
36797;SDS011;22748;8.426;99.512;2022-09-03T02:22:04;3.40;;;2.30;;
36797;SDS011;22748;8.426;99.512;2022-09-03T02:24:34;3.63;;;2.35;;
36797;SDS011;22748;8.426;99.512;2022-09-03T02:27:05;16.02;;;3.70;;
36797;SDS011;22748;8.426;99.512;2022-09-03T02:29:35;7.07;;;3.22;;
36797;SDS011;22748;8.426;99.512;2022-09-03T02:32:10;7.20;;;2.93;;
36797;SDS011;22748;8.426;99.512;2022-09-03T02:34:41;5.38;;;2.88;;
36797;SDS011;22748;8.426;99.512;2022-09-03T02:37:16;7.73;;;3.10;;
36797;SDS011;22748;8.426;99.512;2022-09-03T02:39:47;13.43;;;3.10;;
36797;SDS011;22748;8.426;99.512;2022-09-03T02:42:17;4.00;;;2.85;;
36797;SDS011;22748;8.426;99.512;2022-09-03T02:44:51;16.52;;;3.58;;
36797;SDS011;22748;8.426;99.512;2022-09-03T02:50:12;5.20;;;2.08;;
36797;SDS011;22748;8.426;99.512;2022-09-03T02:52:44;7.57;;;2.70;;
36797;SDS011;22748;8.426;99.512;2022-09-03T02:55:26;4.30;;;2.20;;
36797;SDS011;22748;8.426;99.512;2022-09-03T02:58:20;7.28;;;3.13;;
36797;SDS011;22748;8.426;99.512;2022-09-03T03:00:54;4.88;;;2.25;;
36797;SDS011;22748;8.426;99.512;2022-09-03T03:03:31;14.48;;;5.15;;
36797;SDS011;22748;8.426;99.512;2022-09-03T03:06:03;5.55;;;2.10;;
36797;SDS011;22748;8.426;99.512;2022-09-03T03:08:39;3.30;;;2.40;;
36797;SDS011;22748;8.426;99.512;2022-09-03T03:11:15;4.63;;;2.13;;
36797;SDS011;22748;8.426;99.512;2022-09-03T03:13:49;2.78;;;1.70;;
36797;SDS011;22748;8.426;99.512;2022-09-03T03:16:29;7.50;;;2.40;;
36797;SDS011;22748;8.426;99.512;2022-09-03T03:19:03;5.15;;;1.90;;
36797;SDS011;22748;8.426;99.512;2022-09-03T03:21:35;3.95;;;1.80;;
36797;SDS011;22748;8.426;99.512;2022-09-03T03:24:07;4.40;;;1.50;;
36797;SDS011;22748;8.426;99.512;2022-09-03T03:26:40;5.93;;;2.58;;
36797;SDS011;22748;8.426;99.512;2022-09-03T03:29:14;8.75;;;1.83;;
36797;SDS011;22748;8.426;99.512;2022-09-03T03:31:46;6.10;;;1.65;;
36797;SDS011;22748;8.426;99.512;2022-09-03T03:34:32;6.75;;;2.42;;
36797;SDS011;22748;8.426;99.512;2022-09-03T03:37:03;3.25;;;1.50;;
36797;SDS011;22748;8.426;99.512;2022-09-03T03:39:36;4.00;;;0.90;;
36797;SDS011;22748;8.426;99.512;2022-09-03T03:42:10;7.43;;;1.67;;
36797;SDS011;22748;8.426;99.512;2022-09-03T03:44:45;8.68;;;6.13;;
36797;SDS011;22748;8.426;99.512;2022-09-03T03:47:15;5.90;;;3.30;;
36797;SDS011;22748;8.426;99.512;2022-09-03T03:49:49;8.90;;;3.15;;
36797;SDS011;22748;8.426;99.512;2022-09-03T03:52:19;12.30;;;3.75;;
36797;SDS011;22748;8.426;99.512;2022-09-03T03:54:54;7.03;;;3.60;;
36797;SDS011;22748;8.426;99.512;2022-09-03T03:57:28;10.35;;;3.67;;
36797;SDS011;22748;8.426;99.512;2022-09-03T04:00:01;4.70;;;2.38;;
36797;SDS011;22748;8.426;99.512;2022-09-03T04:02:36;3.75;;;2.10;;
36797;SDS011;22748;8.426;99.512;2022-09-03T04:05:08;4.43;;;2.55;;
36797;SDS011;22748;8.426;99.512;2022-09-03T04:07:39;2.25;;;1.00;;
36797;SDS011;22748;8.426;99.512;2022-09-03T04:10:10;4.78;;;1.05;;
36797;SDS011;22748;8.426;99.512;2022-09-03T04:12:41;2.55;;;0.93;;
36797;SDS011;22748;8.426;99.512;2022-09-03T04:15:11;4.70;;;1.35;;
36797;SDS011;22748;8.426;99.512;2022-09-03T04:17:41;7.78;;;6.85;;
36797;SDS011;22748;8.426;99.512;2022-09-03T04:20:27;3.55;;;2.38;;
36797;SDS011;22748;8.426;99.512;2022-09-03T04:22:59;2.47;;;0.90;;
36797;SDS011;22748;8.426;99.512;2022-09-03T04:25:32;5.85;;;1.10;;
36797;SDS011;22748;8.426;99.512;2022-09-03T04:28:02;1.15;;;0.70;;
36797;SDS011;22748;8.426;99.512;2022-09-03T04:30:32;1.52;;;0.73;;
36797;SDS011;22748;8.426;99.512;2022-09-03T04:33:05;5.60;;;1.60;;
36797;SDS011;22748;8.426;99.512;2022-09-03T04:35:37;5.78;;;1.50;;
36797;SDS011;22748;8.426;99.512;2022-09-03T04:38:08;3.13;;;0.85;;
36797;SDS011;22748;8.426;99.512;2022-09-03T04:40:42;3.42;;;0.90;;
36797;SDS011;22748;8.426;99.512;2022-09-03T04:43:21;4.72;;;1.10;;
36797;SDS011;22748;8.426;99.512;2022-09-03T04:45:51;5.15;;;1.00;;
36797;SDS011;22748;8.426;99.512;2022-09-03T04:48:31;2.50;;;0.85;;
36797;SDS011;22748;8.426;99.512;2022-09-03T04:51:07;1.63;;;0.70;;
36797;SDS011;22748;8.426;99.512;2022-09-03T04:53:46;9.17;;;5.50;;
36797;SDS011;22748;8.426;99.512;2022-09-03T04:56:24;11.73;;;9.48;;
36797;SDS011;22748;8.426;99.512;2022-09-03T04:58:58;14.55;;;11.73;;
36797;SDS011;22748;8.426;99.512;2022-09-03T05:01:29;34.80;;;27.55;;
36797;SDS011;22748;8.426;99.512;2022-09-03T05:04:03;8.82;;;6.10;;
36797;SDS011;22748;8.426;99.512;2022-09-03T05:06:36;3.75;;;1.65;;
36797;SDS011;22748;8.426;99.512;2022-09-03T05:09:11;6.43;;;3.50;;
36797;SDS011;22748;8.426;99.512;2022-09-03T05:11:42;6.45;;;2.70;;
36797;SDS011;22748;8.426;99.512;2022-09-03T05:14:15;3.38;;;1.67;;
36797;SDS011;22748;8.426;99.512;2022-09-03T05:16:55;3.42;;;1.30;;
36797;SDS011;22748;8.426;99.512;2022-09-03T05:19:34;2.65;;;1.17;;
36797;SDS011;22748;8.426;99.512;2022-09-03T05:22:05;3.03;;;1.05;;
36797;SDS011;22748;8.426;99.512;2022-09-03T05:27:07;4.80;;;1.00;;
36797;SDS011;22748;8.426;99.512;2022-09-03T05:29:38;3.75;;;0.90;;
36797;SDS011;22748;8.426;99.512;2022-09-03T05:32:08;4.57;;;0.80;;
36797;SDS011;22748;8.426;99.512;2022-09-03T05:34:42;3.95;;;0.57;;
36797;SDS011;22748;8.426;99.512;2022-09-03T05:37:15;3.67;;;0.80;;
36797;SDS011;22748;8.426;99.512;2022-09-03T05:39:46;5.35;;;1.35;;
36797;SDS011;22748;8.426;99.512;2022-09-03T05:42:17;3.85;;;1.30;;
36797;SDS011;22748;8.426;99.512;2022-09-03T05:44:46;3.13;;;1.30;;
36797;SDS011;22748;8.426;99.512;2022-09-03T05:47:18;6.90;;;1.90;;
36797;SDS011;22748;8.426;99.512;2022-09-03T05:49:53;4.22;;;0.98;;
36797;SDS011;22748;8.426;99.512;2022-09-03T05:54:56;7.13;;;1.00;;
36797;SDS011;22748;8.426;99.512;2022-09-03T05:57:30;7.82;;;2.78;;
36797;SDS011;22748;8.426;99.512;2022-09-03T06:00:01;5.97;;;1.98;;
36797;SDS011;22748;8.426;99.512;2022-09-03T06:02:34;2.38;;;0.95;;
36797;SDS011;22748;8.426;99.512;2022-09-03T06:05:07;3.80;;;1.00;;
36797;SDS011;22748;8.426;99.512;2022-09-03T06:07:39;4.05;;;1.05;;
36797;SDS011;22748;8.426;99.512;2022-09-03T06:10:11;5.45;;;1.20;;
36797;SDS011;22748;8.426;99.512;2022-09-03T06:12:43;3.13;;;0.90;;
36797;SDS011;22748;8.426;99.512;2022-09-03T06:15:15;3.90;;;1.05;;
36797;SDS011;22748;8.426;99.512;2022-09-03T06:17:48;7.25;;;1.90;;
36797;SDS011;22748;8.426;99.512;2022-09-03T06:20:17;6.20;;;1.42;;
36797;SDS011;22748;8.426;99.512;2022-09-03T06:22:51;4.80;;;1.20;;
36797;SDS011;22748;8.426;99.512;2022-09-03T06:25:26;5.22;;;1.10;;
36797;SDS011;22748;8.426;99.512;2022-09-03T06:27:59;3.22;;;0.90;;
36797;SDS011;22748;8.426;99.512;2022-09-03T06:30:29;1.52;;;0.60;;
36797;SDS011;22748;8.426;99.512;2022-09-03T06:33:00;2.72;;;0.50;;
36797;SDS011;22748;8.426;99.512;2022-09-03T06:35:34;1.33;;;0.50;;
36797;SDS011;22748;8.426;99.512;2022-09-03T06:38:09;1.60;;;0.68;;
36797;SDS011;22748;8.426;99.512;2022-09-03T06:40:40;8.48;;;2.65;;
36797;SDS011;22748;8.426;99.512;2022-09-03T06:43:16;4.82;;;0.98;;
36797;SDS011;22748;8.426;99.512;2022-09-03T06:45:52;2.60;;;0.70;;
36797;SDS011;22748;8.426;99.512;2022-09-03T06:48:32;3.25;;;0.90;;
36797;SDS011;22748;8.426;99.512;2022-09-03T06:51:06;2.53;;;0.93;;
36797;SDS011;22748;8.426;99.512;2022-09-03T06:53:54;1.92;;;0.70;;
36797;SDS011;22748;8.426;99.512;2022-09-03T06:56:37;4.55;;;1.10;;
36797;SDS011;22748;8.426;99.512;2022-09-03T06:59:12;2.67;;;0.95;;
36797;SDS011;22748;8.426;99.512;2022-09-03T07:01:45;4.50;;;0.80;;
36797;SDS011;22748;8.426;99.512;2022-09-03T07:04:20;2.88;;;0.82;;
36797;SDS011;22748;8.426;99.512;2022-09-03T07:06:50;4.70;;;0.90;;
36797;SDS011;22748;8.426;99.512;2022-09-03T07:09:25;2.55;;;0.80;;
36797;SDS011;22748;8.426;99.512;2022-09-03T07:11:55;7.20;;;1.17;;
36797;SDS011;22748;8.426;99.512;2022-09-03T07:14:28;8.10;;;1.15;;
36797;SDS011;22748;8.426;99.512;2022-09-03T07:16:58;3.03;;;1.02;;
36797;SDS011;22748;8.426;99.512;2022-09-03T07:19:31;2.97;;;0.80;;
36797;SDS011;22748;8.426;99.512;2022-09-03T07:22:01;4.32;;;2.58;;
36797;SDS011;22748;8.426;99.512;2022-09-03T07:24:36;2.80;;;1.20;;
36797;SDS011;22748;8.426;99.512;2022-09-03T07:27:10;2.38;;;0.82;;
36797;SDS011;22748;8.426;99.512;2022-09-03T07:29:40;5.85;;;1.15;;
36797;SDS011;22748;8.426;99.512;2022-09-03T07:32:10;6.63;;;1.45;;
36797;SDS011;22748;8.426;99.512;2022-09-03T07:34:41;6.45;;;1.50;;
36797;SDS011;22748;8.426;99.512;2022-09-03T07:37:14;3.60;;;1.60;;
36797;SDS011;22748;8.426;99.512;2022-09-03T07:39:50;13.90;;;1.88;;
36797;SDS011;22748;8.426;99.512;2022-09-03T07:42:20;4.55;;;1.20;;
36797;SDS011;22748;8.426;99.512;2022-09-03T07:44:53;7.72;;;1.95;;
36797;SDS011;22748;8.426;99.512;2022-09-03T07:47:26;3.58;;;1.40;;
36797;SDS011;22748;8.426;99.512;2022-09-03T07:49:57;12.67;;;1.63;;
36797;SDS011;22748;8.426;99.512;2022-09-03T07:52:29;5.35;;;1.67;;
36797;SDS011;22748;8.426;99.512;2022-09-03T07:55:04;3.55;;;1.20;;
36797;SDS011;22748;8.426;99.512;2022-09-03T07:57:39;4.93;;;1.10;;
36797;SDS011;22748;8.426;99.512;2022-09-03T08:00:09;10.57;;;5.90;;
36797;SDS011;22748;8.426;99.512;2022-09-03T08:02:42;5.20;;;1.65;;
36797;SDS011;22748;8.426;99.512;2022-09-03T08:05:19;5.63;;;1.20;;
36797;SDS011;22748;8.426;99.512;2022-09-03T08:07:49;4.35;;;1.20;;
36797;SDS011;22748;8.426;99.512;2022-09-03T08:10:24;3.50;;;1.13;;
36797;SDS011;22748;8.426;99.512;2022-09-03T08:13:14;7.95;;;2.13;;
36797;SDS011;22748;8.426;99.512;2022-09-03T08:15:53;4.00;;;2.40;;
36797;SDS011;22748;8.426;99.512;2022-09-03T08:18:27;5.70;;;1.17;;
36797;SDS011;22748;8.426;99.512;2022-09-03T08:21:12;4.85;;;1.10;;
36797;SDS011;22748;8.426;99.512;2022-09-03T08:23:57;6.82;;;1.40;;
36797;SDS011;22748;8.426;99.512;2022-09-03T08:26:31;3.67;;;0.90;;
36797;SDS011;22748;8.426;99.512;2022-09-03T08:29:04;2.20;;;1.10;;
36797;SDS011;22748;8.426;99.512;2022-09-03T08:31:38;4.43;;;1.13;;
36797;SDS011;22748;8.426;99.512;2022-09-03T08:34:11;6.13;;;1.15;;
36797;SDS011;22748;8.426;99.512;2022-09-03T08:36:43;6.65;;;1.50;;
36797;SDS011;22748;8.426;99.512;2022-09-03T08:39:14;3.20;;;0.73;;
36797;SDS011;22748;8.426;99.512;2022-09-03T08:41:56;2.25;;;0.75;;
36797;SDS011;22748;8.426;99.512;2022-09-03T08:44:42;8.18;;;1.33;;
36797;SDS011;22748;8.426;99.512;2022-09-03T08:47:19;6.82;;;1.65;;
36797;SDS011;22748;8.426;99.512;2022-09-03T08:49:54;4.50;;;1.67;;
36797;SDS011;22748;8.426;99.512;2022-09-03T08:52:28;2.33;;;1.23;;
36797;SDS011;22748;8.426;99.512;2022-09-03T08:55:13;4.05;;;1.70;;
36797;SDS011;22748;8.426;99.512;2022-09-03T08:57:50;3.85;;;1.52;;
36797;SDS011;22748;8.426;99.512;2022-09-03T09:00:38;4.95;;;1.30;;
36797;SDS011;22748;8.426;99.512;2022-09-03T09:03:37;4.47;;;1.40;;
36797;SDS011;22748;8.426;99.512;2022-09-03T09:06:17;3.55;;;1.20;;
36797;SDS011;22748;8.426;99.512;2022-09-03T09:09:11;10.88;;;7.03;;
36797;SDS011;22748;8.426;99.512;2022-09-03T09:11:57;10.52;;;5.13;;
36797;SDS011;22748;8.426;99.512;2022-09-03T09:14:42;7.93;;;4.30;;
36797;SDS011;22748;8.426;99.512;2022-09-03T09:17:23;3.63;;;2.43;;
36797;SDS011;22748;8.426;99.512;2022-09-03T09:20:13;4.45;;;2.13;;
36797;SDS011;22748;8.426;99.512;2022-09-03T09:22:59;3.90;;;1.90;;
36797;SDS011;22748;8.426;99.512;2022-09-03T09:25:36;3.95;;;1.70;;
36797;SDS011;22748;8.426;99.512;2022-09-03T09:28:15;2.58;;;1.60;;
36797;SDS011;22748;8.426;99.512;2022-09-03T09:30:49;3.53;;;1.95;;
36797;SDS011;22748;8.426;99.512;2022-09-03T09:33:28;7.88;;;1.90;;
36797;SDS011;22748;8.426;99.512;2022-09-03T09:36:02;22.10;;;4.32;;
36797;SDS011;22748;8.426;99.512;2022-09-03T09:38:38;8.30;;;2.75;;
36797;SDS011;22748;8.426;99.512;2022-09-03T09:41:11;9.57;;;3.50;;
36797;SDS011;22748;8.426;99.512;2022-09-03T09:43:58;9.68;;;3.45;;
36797;SDS011;22748;8.426;99.512;2022-09-03T09:46:34;24.15;;;12.65;;
36797;SDS011;22748;8.426;99.512;2022-09-03T09:49:21;44.47;;;16.48;;
36797;SDS011;22748;8.426;99.512;2022-09-03T09:52:02;16.67;;;5.82;;
36797;SDS011;22748;8.426;99.512;2022-09-03T09:54:37;28.17;;;8.57;;
36797;SDS011;22748;8.426;99.512;2022-09-03T09:57:14;26.67;;;5.90;;
36797;SDS011;22748;8.426;99.512;2022-09-03T09:59:47;17.95;;;4.18;;
36797;SDS011;22748;8.426;99.512;2022-09-03T10:02:33;7.53;;;2.00;;
36797;SDS011;22748;8.426;99.512;2022-09-03T10:05:14;4.85;;;1.38;;
36797;SDS011;22748;8.426;99.512;2022-09-03T10:07:55;2.25;;;1.33;;
36797;SDS011;22748;8.426;99.512;2022-09-03T10:10:26;3.47;;;1.35;;
36797;SDS011;22748;8.426;99.512;2022-09-03T10:12:59;15.10;;;2.90;;
36797;SDS011;22748;8.426;99.512;2022-09-03T10:15:36;35.55;;;10.43;;
36797;SDS011;22748;8.426;99.512;2022-09-03T10:18:26;12.27;;;7.60;;
36797;SDS011;22748;8.426;99.512;2022-09-03T10:21:07;4.05;;;1.67;;
36797;SDS011;22748;8.426;99.512;2022-09-03T10:23:49;7.15;;;2.90;;
36797;SDS011;22748;8.426;99.512;2022-09-03T10:26:26;7.22;;;1.95;;
36797;SDS011;22748;8.426;99.512;2022-09-03T10:29:08;8.27;;;1.85;;
36797;SDS011;22748;8.426;99.512;2022-09-03T10:31:51;11.90;;;2.17;;
36797;SDS011;22748;8.426;99.512;2022-09-03T10:34:37;6.15;;;2.05;;
36797;SDS011;22748;8.426;99.512;2022-09-03T10:37:23;6.03;;;2.00;;
36797;SDS011;22748;8.426;99.512;2022-09-03T10:43:02;4.78;;;2.60;;
36797;SDS011;22748;8.426;99.512;2022-09-03T10:45:48;7.33;;;1.90;;
36797;SDS011;22748;8.426;99.512;2022-09-03T10:48:36;7.10;;;3.25;;
36797;SDS011;22748;8.426;99.512;2022-09-03T10:51:21;7.00;;;3.70;;
36797;SDS011;22748;8.426;99.512;2022-09-03T10:54:07;7.32;;;3.47;;
36797;SDS011;22748;8.426;99.512;2022-09-03T10:57:02;7.90;;;3.30;;
36797;SDS011;22748;8.426;99.512;2022-09-03T10:59:45;5.10;;;2.65;;
36797;SDS011;22748;8.426;99.512;2022-09-03T11:05:27;3.97;;;2.20;;
36797;SDS011;22748;8.426;99.512;2022-09-03T11:08:09;9.45;;;3.25;;
36797;SDS011;22748;8.426;99.512;2022-09-03T11:11:02;7.28;;;2.60;;
36797;SDS011;22748;8.426;99.512;2022-09-03T11:13:43;4.65;;;2.17;;
36797;SDS011;22748;8.426;99.512;2022-09-03T11:16:16;5.45;;;2.70;;
36797;SDS011;22748;8.426;99.512;2022-09-03T11:18:53;5.10;;;3.15;;
36797;SDS011;22748;8.426;99.512;2022-09-03T11:21:29;7.00;;;3.40;;
36797;SDS011;22748;8.426;99.512;2022-09-03T11:24:06;8.32;;;3.50;;
36797;SDS011;22748;8.426;99.512;2022-09-03T11:26:42;9.88;;;6.70;;
36797;SDS011;22748;8.426;99.512;2022-09-03T11:29:16;6.25;;;4.20;;
36797;SDS011;22748;8.426;99.512;2022-09-03T11:31:56;5.03;;;4.00;;
36797;SDS011;22748;8.426;99.512;2022-09-03T11:34:43;13.73;;;8.82;;
36797;SDS011;22748;8.426;99.512;2022-09-03T11:37:17;18.23;;;12.23;;
36797;SDS011;22748;8.426;99.512;2022-09-03T11:40:04;22.00;;;14.52;;
36797;SDS011;22748;8.426;99.512;2022-09-03T11:42:42;15.52;;;12.65;;
36797;SDS011;22748;8.426;99.512;2022-09-03T11:45:20;29.38;;;15.73;;
36797;SDS011;22748;8.426;99.512;2022-09-03T11:47:55;15.82;;;9.32;;
36797;SDS011;22748;8.426;99.512;2022-09-03T11:50:26;8.68;;;5.68;;
36797;SDS011;22748;8.426;99.512;2022-09-03T11:53:06;6.55;;;2.50;;
36797;SDS011;22748;8.426;99.512;2022-09-03T11:55:51;7.07;;;2.10;;
36797;SDS011;22748;8.426;99.512;2022-09-03T11:58:24;2.75;;;1.45;;
36797;SDS011;22748;8.426;99.512;2022-09-03T12:00:57;2.90;;;1.70;;
36797;SDS011;22748;8.426;99.512;2022-09-03T12:03:41;3.67;;;2.53;;
36797;SDS011;22748;8.426;99.512;2022-09-03T12:06:20;5.90;;;2.45;;
36797;SDS011;22748;8.426;99.512;2022-09-03T12:09:05;2.70;;;2.00;;
36797;SDS011;22748;8.426;99.512;2022-09-03T12:12:00;3.65;;;1.85;;
36797;SDS011;22748;8.426;99.512;2022-09-03T12:14:45;1.85;;;1.42;;
36797;SDS011;22748;8.426;99.512;2022-09-03T12:17:27;3.65;;;1.85;;
36797;SDS011;22748;8.426;99.512;2022-09-03T12:20:12;14.40;;;9.40;;
36797;SDS011;22748;8.426;99.512;2022-09-03T12:22:52;25.38;;;11.27;;
36797;SDS011;22748;8.426;99.512;2022-09-03T12:25:27;12.65;;;8.40;;
36797;SDS011;22748;8.426;99.512;2022-09-03T12:28:01;11.35;;;6.43;;
36797;SDS011;22748;8.426;99.512;2022-09-03T12:30:41;12.43;;;6.25;;
36797;SDS011;22748;8.426;99.512;2022-09-03T12:33:11;9.35;;;5.60;;
36797;SDS011;22748;8.426;99.512;2022-09-03T12:35:55;12.02;;;6.30;;
36797;SDS011;22748;8.426;99.512;2022-09-03T12:38:28;13.60;;;7.13;;
36797;SDS011;22748;8.426;99.512;2022-09-03T12:40:59;19.27;;;10.82;;
36797;SDS011;22748;8.426;99.512;2022-09-03T12:43:31;19.95;;;10.13;;
36797;SDS011;22748;8.426;99.512;2022-09-03T12:46:02;20.40;;;11.38;;
36797;SDS011;22748;8.426;99.512;2022-09-03T12:48:32;15.88;;;9.75;;
36797;SDS011;22748;8.426;99.512;2022-09-03T12:51:03;16.35;;;8.57;;
36797;SDS011;22748;8.426;99.512;2022-09-03T12:53:33;10.95;;;7.40;;
36797;SDS011;22748;8.426;99.512;2022-09-03T12:56:06;10.77;;;5.68;;
36797;SDS011;22748;8.426;99.512;2022-09-03T12:58:43;7.57;;;4.65;;
36797;SDS011;22748;8.426;99.512;2022-09-03T13:01:19;7.32;;;4.38;;
36797;SDS011;22748;8.426;99.512;2022-09-03T13:03:53;6.65;;;3.53;;
36797;SDS011;22748;8.426;99.512;2022-09-03T13:06:30;5.55;;;2.97;;
36797;SDS011;22748;8.426;99.512;2022-09-03T13:09:08;6.57;;;2.75;;
36797;SDS011;22748;8.426;99.512;2022-09-03T13:11:38;4.90;;;3.20;;
36797;SDS011;22748;8.426;99.512;2022-09-03T13:14:11;7.40;;;3.15;;
36797;SDS011;22748;8.426;99.512;2022-09-03T13:16:49;9.52;;;5.20;;
36797;SDS011;22748;8.426;99.512;2022-09-03T13:19:43;10.07;;;4.82;;
36797;SDS011;22748;8.426;99.512;2022-09-03T13:22:29;7.47;;;4.50;;
36797;SDS011;22748;8.426;99.512;2022-09-03T13:25:11;14.32;;;5.70;;
36797;SDS011;22748;8.426;99.512;2022-09-03T13:27:53;9.50;;;4.65;;
36797;SDS011;22748;8.426;99.512;2022-09-03T13:30:36;7.43;;;3.80;;
36797;SDS011;22748;8.426;99.512;2022-09-03T13:33:19;8.30;;;3.78;;
36797;SDS011;22748;8.426;99.512;2022-09-03T13:35:53;4.18;;;3.22;;
36797;SDS011;22748;8.426;99.512;2022-09-03T13:38:32;5.68;;;3.00;;
36797;SDS011;22748;8.426;99.512;2022-09-03T13:41:08;4.95;;;3.40;;
36797;SDS011;22748;8.426;99.512;2022-09-03T13:43:46;5.50;;;4.43;;
36797;SDS011;22748;8.426;99.512;2022-09-03T13:46:30;24.20;;;18.20;;
36797;SDS011;22748;8.426;99.512;2022-09-03T13:49:15;33.25;;;21.42;;
36797;SDS011;22748;8.426;99.512;2022-09-03T13:52:04;21.65;;;13.13;;
36797;SDS011;22748;8.426;99.512;2022-09-03T13:54:49;14.45;;;10.05;;
36797;SDS011;22748;8.426;99.512;2022-09-03T13:57:29;13.95;;;10.15;;
36797;SDS011;22748;8.426;99.512;2022-09-03T14:00:13;16.98;;;10.85;;
36797;SDS011;22748;8.426;99.512;2022-09-03T14:03:05;18.55;;;12.82;;
36797;SDS011;22748;8.426;99.512;2022-09-03T14:05:46;18.63;;;12.63;;
36797;SDS011;22748;8.426;99.512;2022-09-03T14:08:33;19.10;;;11.75;;
36797;SDS011;22748;8.426;99.512;2022-09-03T14:11:20;14.15;;;9.15;;
36797;SDS011;22748;8.426;99.512;2022-09-03T14:14:07;11.18;;;7.80;;
36797;SDS011;22748;8.426;99.512;2022-09-03T14:16:46;10.07;;;6.90;;
36797;SDS011;22748;8.426;99.512;2022-09-03T14:19:31;9.77;;;6.40;;
36797;SDS011;22748;8.426;99.512;2022-09-03T14:22:05;8.55;;;5.78;;
36797;SDS011;22748;8.426;99.512;2022-09-03T14:24:43;5.55;;;4.30;;
36797;SDS011;22748;8.426;99.512;2022-09-03T14:27:24;6.00;;;3.92;;
36797;SDS011;22748;8.426;99.512;2022-09-03T14:29:58;8.98;;;3.85;;
36797;SDS011;22748;8.426;99.512;2022-09-03T14:32:30;6.47;;;4.10;;
36797;SDS011;22748;8.426;99.512;2022-09-03T14:38:10;8.48;;;4.28;;
36797;SDS011;22748;8.426;99.512;2022-09-03T14:41:04;6.95;;;5.47;;
36797;SDS011;22748;8.426;99.512;2022-09-03T14:43:56;6.45;;;4.90;;
36797;SDS011;22748;8.426;99.512;2022-09-03T14:46:47;4.75;;;3.40;;
36797;SDS011;22748;8.426;99.512;2022-09-03T14:49:41;6.90;;;3.58;;
36797;SDS011;22748;8.426;99.512;2022-09-03T14:52:32;5.30;;;3.38;;
36797;SDS011;22748;8.426;99.512;2022-09-03T14:55:23;5.68;;;3.60;;
36797;SDS011;22748;8.426;99.512;2022-09-03T14:58:08;5.70;;;3.00;;
36797;SDS011;22748;8.426;99.512;2022-09-03T15:00:56;5.03;;;2.88;;
36797;SDS011;22748;8.426;99.512;2022-09-03T15:03:44;5.30;;;3.75;;
36797;SDS011;22748;8.426;99.512;2022-09-03T15:06:42;5.63;;;4.63;;
36797;SDS011;22748;8.426;99.512;2022-09-03T15:09:30;8.87;;;4.73;;
36797;SDS011;22748;8.426;99.512;2022-09-03T15:12:08;9.40;;;5.30;;
36797;SDS011;22748;8.426;99.512;2022-09-03T15:14:51;11.90;;;5.57;;
36797;SDS011;22748;8.426;99.512;2022-09-03T15:17:31;23.63;;;14.27;;
36797;SDS011;22748;8.426;99.512;2022-09-03T15:20:19;31.50;;;21.77;;
36797;SDS011;22748;8.426;99.512;2022-09-03T15:26:04;29.65;;;19.48;;
36797;SDS011;22748;8.426;99.512;2022-09-03T15:28:55;27.05;;;18.48;;
36797;SDS011;22748;8.426;99.512;2022-09-03T15:31:38;21.17;;;15.23;;
36797;SDS011;22748;8.426;99.512;2022-09-03T15:34:29;19.15;;;14.68;;
36797;SDS011;22748;8.426;99.512;2022-09-03T15:37:15;19.08;;;13.52;;
36797;SDS011;22748;8.426;99.512;2022-09-03T15:39:56;14.48;;;10.75;;
36797;SDS011;22748;8.426;99.512;2022-09-03T15:42:36;13.40;;;10.15;;
36797;SDS011;22748;8.426;99.512;2022-09-03T15:45:07;14.85;;;10.38;;
36797;SDS011;22748;8.426;99.512;2022-09-03T15:47:49;12.95;;;9.80;;
36797;SDS011;22748;8.426;99.512;2022-09-03T15:50:27;10.35;;;8.48;;
36797;SDS011;22748;8.426;99.512;2022-09-03T15:53:05;10.25;;;8.00;;
36797;SDS011;22748;8.426;99.512;2022-09-03T15:56:01;8.73;;;6.95;;
36797;SDS011;22748;8.426;99.512;2022-09-03T15:58:44;12.25;;;7.00;;
36797;SDS011;22748;8.426;99.512;2022-09-03T16:04:21;7.38;;;5.80;;
36797;SDS011;22748;8.426;99.512;2022-09-03T16:07:06;8.07;;;5.07;;
36797;SDS011;22748;8.426;99.512;2022-09-03T16:09:50;6.88;;;4.47;;
36797;SDS011;22748;8.426;99.512;2022-09-03T16:12:32;8.82;;;4.55;;